createdAt,value
2022-11-02T00:04:54.006Z,52.97
2022-11-02T00:09:56.834Z,53.62
2022-11-02T00:14:59.671Z,55.63
2022-11-02T00:20:04.238Z,57.26
2022-11-02T00:25:08.883Z,58.63
2022-11-02T00:30:11.963Z,59.85
2022-11-02T00:35:16.550Z,66.80
2022-11-02T00:40:19.483Z,60.25
2022-11-02T00:45:23.042Z,52.84
2022-11-02T00:50:26.062Z,54.09
2022-11-02T00:55:29.105Z,55.87
2022-11-02T01:00:36.281Z,57.08
2022-11-02T01:05:39.422Z,58.87
2022-11-02T01:10:45.550Z,60.61
2022-11-02T01:15:52.553Z,67.71
2022-11-02T01:20:59.048Z,61.05
2022-11-02T01:26:07.194Z,53.17
2022-11-02T01:31:11.374Z,54.58
2022-11-02T01:36:17.081Z,56.56
2022-11-02T01:41:20.059Z,58.32
2022-11-02T01:46:47.864Z,60.01
2022-11-02T01:52:04.972Z,67.27
2022-11-02T01:57:14.927Z,57.87
2022-11-02T02:08:36.324Z,56.48
2022-11-02T02:13:39.204Z,58.41
2022-11-02T02:18:51.994Z,59.91
2022-11-02T02:24:07.124Z,66.80
2022-11-02T02:29:15.023Z,59.87
2022-11-02T02:34:24.739Z,53.31
2022-11-02T02:39:33.565Z,54.93
2022-11-02T02:44:40.774Z,56.75
2022-11-02T02:49:51.408Z,58.52
2022-11-02T02:54:58.459Z,60.06
2022-11-02T03:00:01.579Z,66.35
2022-11-02T03:05:25.725Z,59.70
2022-11-02T03:10:34.841Z,53.14
2022-11-02T03:16:01.376Z,54.25
2022-11-02T03:21:20.352Z,55.50
2022-11-02T03:26:32.266Z,57.38
2022-11-02T03:31:54.948Z,58.91
2022-11-02T03:42:23.574Z,67.61
2022-11-02T03:47:31.190Z,60.04
2022-11-02T03:52:40.035Z,52.86
2022-11-02T03:57:49.616Z,54.05
2022-11-02T04:02:58.721Z,55.88
2022-11-02T04:08:21.009Z,57.75
2022-11-02T04:13:44.348Z,58.88
2022-11-02T04:19:06.118Z,60.55
2022-11-02T04:24:27.729Z,68.24
2022-11-02T04:29:30.632Z,60.74
2022-11-02T04:34:33.791Z,53.54
2022-11-02T04:39:37.291Z,54.56
2022-11-02T04:44:40.848Z,57.08
2022-11-02T04:49:50.650Z,58.45
2022-11-02T04:54:54.284Z,59.27
2022-11-02T04:59:57.251Z,61.26
2022-11-02T05:05:00.451Z,68.79
2022-11-02T05:10:04.157Z,61.85
2022-11-02T05:15:09.939Z,53.48
2022-11-02T05:20:13.704Z,53.74
2022-11-02T05:25:16.660Z,55.74
2022-11-02T05:30:19.566Z,57.39
2022-11-02T05:35:25.072Z,59.76
2022-11-02T05:40:32.143Z,67.23
2022-11-02T05:45:37.208Z,60.38
2022-11-02T05:50:41.351Z,52.73
2022-11-02T05:55:44.858Z,54.09
2022-11-02T06:00:50.016Z,55.77
2022-11-02T06:06:03.776Z,57.68
2022-11-02T06:11:12.483Z,59.60
2022-11-02T06:16:22.412Z,67.13
2022-11-02T06:21:26.837Z,59.78
2022-11-02T06:26:30.749Z,53.86
2022-11-02T06:31:34.094Z,54.99
2022-11-02T06:36:38.017Z,57.21
2022-11-02T06:41:42.929Z,59.31
2022-11-02T06:46:46.457Z,60.79
2022-11-02T06:51:53.653Z,67.91
2022-11-02T06:56:56.620Z,60.82
2022-11-02T07:02:00.090Z,53.69
2022-11-02T07:07:04.603Z,54.77
2022-11-02T07:12:07.823Z,57.35
2022-11-02T07:17:11.298Z,59.28
2022-11-02T07:22:14.796Z,60.74
2022-11-02T07:27:18.150Z,67.87
2022-11-02T07:32:21.544Z,61.04
2022-11-02T07:37:24.600Z,54.20
2022-11-02T07:42:28.245Z,56.29
2022-11-02T07:47:33.360Z,58.44
2022-11-02T07:52:36.914Z,60.33
2022-11-02T07:57:39.743Z,66.28
2022-11-02T08:02:42.725Z,59.49
2022-11-02T08:07:45.637Z,53.38
2022-11-02T08:12:49.539Z,55.17
2022-11-02T08:18:03.389Z,57.35
2022-11-02T08:23:07.846Z,58.89
2022-11-02T08:28:13.878Z,60.25
2022-11-02T08:33:18.767Z,66.72
2022-11-02T08:38:24.733Z,57.77
2022-11-02T08:43:27.796Z,52.91
2022-11-02T08:48:30.709Z,55.02
2022-11-02T08:53:33.595Z,56.36
2022-11-02T08:58:36.476Z,58.03
2022-11-02T09:03:39.445Z,59.30
2022-11-02T09:08:42.469Z,65.06
2022-11-02T09:13:45.643Z,55.92
2022-11-02T09:18:48.766Z,54.81
2022-11-02T09:23:51.698Z,56.07
2022-11-02T09:28:54.588Z,57.66
2022-11-02T09:33:57.524Z,59.08
2022-11-02T09:39:00.462Z,59.62
2022-11-02T09:44:22.180Z,60.91
2022-11-02T09:49:26.285Z,66.05
2022-11-02T09:54:40.480Z,57.32
2022-11-02T09:59:43.516Z,54.68
2022-11-02T10:05:20.146Z,55.27
2022-11-02T10:10:45.812Z,55.35
2022-11-02T10:15:53.723Z,55.66
2022-11-02T10:21:06.684Z,57.21
2022-11-02T10:26:19.363Z,57.10
2022-11-02T10:31:33.905Z,56.34
2022-11-02T10:36:55.785Z,57.23
2022-11-02T10:42:10.552Z,56.94
2022-11-02T10:47:18.654Z,57.21
2022-11-02T10:52:22.106Z,57.04
2022-11-02T10:57:25.940Z,57.09
2022-11-02T11:02:30.190Z,57.20
2022-11-02T11:07:35.036Z,58.72
2022-11-02T11:12:41.051Z,57.95
2022-11-02T11:23:25.700Z,56.51
2022-11-02T11:28:30.273Z,57.64
2022-11-02T11:33:41.517Z,57.05
2022-11-02T11:38:48.420Z,55.34
2022-11-02T11:43:52.928Z,54.14
2022-11-02T11:48:59.764Z,54.84
2022-11-02T11:54:24.309Z,52.79
2022-11-02T11:59:48.526Z,53.37
2022-11-02T12:05:01.967Z,51.88
2022-11-02T12:10:10.949Z,52.78
2022-11-02T12:15:44.287Z,52.38
2022-11-02T12:20:50.133Z,52.89
2022-11-02T12:26:04.929Z,52.17
2022-11-02T12:31:11.406Z,51.99
2022-11-02T12:36:33.020Z,51.81
2022-11-02T12:41:42.025Z,52.77
2022-11-02T12:47:04.913Z,51.47
2022-11-02T12:52:16.841Z,51.92
2022-11-02T12:57:23.805Z,51.99
2022-11-02T13:02:32.510Z,51.58
2022-11-02T13:07:43.453Z,51.59
2022-11-02T13:12:50.822Z,51.67
2022-11-02T13:17:58.493Z,51.57
2022-11-02T13:23:34.747Z,50.59
2022-11-02T13:28:52.834Z,50.57
2022-11-02T13:34:00.242Z,51.24
2022-11-02T13:39:05.996Z,51.10
2022-11-02T13:44:27.540Z,50.68
2022-11-02T13:49:37.382Z,50.87
2022-11-02T13:54:53.181Z,50.95
2022-11-02T13:59:59.763Z,51.51
2022-11-02T14:05:02.956Z,51.09
2022-11-02T14:10:16.415Z,50.65
2022-11-02T14:15:19.301Z,51.06
2022-11-02T14:20:46.826Z,51.14
2022-11-02T14:25:54.473Z,51.40
2022-11-02T14:31:03.417Z,51.22
2022-11-02T14:36:18.691Z,51.45
2022-11-02T14:41:39.933Z,52.54
2022-11-02T14:46:48.817Z,53.32
2022-11-02T14:52:15.028Z,53.83
2022-11-02T14:57:26.149Z,54.50
2022-11-02T15:02:32.600Z,54.48
2022-11-02T15:07:41.784Z,54.91
2022-11-02T15:12:46.978Z,55.15
2022-11-02T15:17:59.304Z,55.44
2022-11-02T15:23:30.009Z,55.75
2022-11-02T15:28:34.984Z,55.89
2022-11-02T15:33:42.734Z,56.26
2022-11-02T15:38:51.404Z,56.65
2022-11-02T15:44:08.051Z,56.96
2022-11-02T15:49:29.590Z,57.04
2022-11-02T15:54:49.616Z,57.18
2022-11-02T16:00:14.082Z,57.34
2022-11-02T16:05:26.802Z,57.51
2022-11-02T16:10:31.178Z,57.75
2022-11-02T16:15:34.296Z,58.08
2022-11-02T16:20:40.000Z,58.48
2022-11-02T16:25:46.980Z,58.49
2022-11-02T16:31:21.548Z,58.62
2022-11-02T16:36:27.308Z,58.80
2022-11-02T16:41:32.793Z,59.09
2022-11-02T16:46:56.682Z,59.12
2022-11-02T16:52:06.866Z,59.15
2022-11-02T16:57:12.601Z,59.33
2022-11-02T17:02:16.085Z,59.39
2022-11-02T17:07:35.884Z,59.57
2022-11-02T17:12:43.627Z,59.67
2022-11-02T17:17:47.022Z,59.83
2022-11-02T17:23:04.036Z,59.89
2022-11-02T17:28:34.556Z,60.02
2022-11-02T17:33:37.634Z,60.11
2022-11-02T17:38:40.728Z,60.31
2022-11-02T17:43:45.662Z,60.30
2022-11-02T17:48:48.656Z,60.36
2022-11-02T17:53:51.966Z,60.42
2022-11-02T17:58:56.539Z,60.64
2022-11-02T18:03:59.448Z,60.72
2022-11-02T18:09:11.495Z,60.80
2022-11-02T18:14:16.994Z,60.91
2022-11-02T18:19:20.193Z,61.17
2022-11-02T18:24:23.084Z,61.21
2022-11-02T18:29:25.976Z,61.15
2022-11-02T18:34:29.274Z,61.26
2022-11-02T18:39:32.533Z,61.46
2022-11-02T18:44:35.842Z,61.55
2022-11-02T18:49:38.902Z,61.63
2022-11-02T18:54:41.793Z,61.73
2022-11-02T18:59:45.007Z,61.79
2022-11-02T19:04:47.883Z,61.94
2022-11-02T19:09:50.766Z,62.18
2022-11-02T19:14:54.436Z,62.08
2022-11-02T19:19:57.486Z,62.07
2022-11-02T19:25:01.281Z,62.10
2022-11-02T19:30:05.197Z,62.16
2022-11-02T19:35:08.459Z,62.22
2022-11-02T19:40:11.889Z,68.32
2022-11-02T19:45:17.949Z,60.50
2022-11-02T19:50:20.962Z,52.47
2022-11-02T19:55:28.690Z,53.30
2022-11-02T20:00:36.046Z,54.19
2022-11-02T20:05:40.390Z,55.02
2022-11-02T20:10:43.476Z,55.89
2022-11-02T20:15:56.109Z,56.87
2022-11-02T20:21:11.429Z,57.73
2022-11-02T20:26:47.003Z,58.67
2022-11-02T20:31:52.665Z,59.14
2022-11-02T20:37:00.718Z,59.76
2022-11-02T20:42:04.371Z,60.40
2022-11-02T20:47:11.204Z,60.69
2022-11-02T20:52:19.359Z,61.22
2022-11-02T20:57:24.572Z,61.53
2022-11-02T21:02:35.101Z,61.71
2022-11-02T21:07:38.131Z,61.77
2022-11-02T21:12:59.758Z,61.86
2022-11-02T21:18:02.865Z,61.83
2022-11-02T21:23:06.592Z,62.01
2022-11-02T21:28:09.727Z,61.89
2022-11-02T21:33:12.662Z,61.89
2022-11-02T21:38:15.657Z,62.00
2022-11-02T21:43:19.134Z,62.08
2022-11-02T21:48:23.157Z,69.51
2022-11-02T21:53:26.296Z,60.52
2022-11-02T21:58:29.707Z,51.87
2022-11-02T22:03:32.636Z,52.27
2022-11-02T22:08:41.295Z,53.41
2022-11-02T22:13:44.533Z,54.55
2022-11-02T22:19:01.122Z,55.58
2022-11-02T22:24:05.576Z,56.53
2022-11-02T22:29:09.116Z,57.74
2022-11-02T22:34:14.132Z,58.68
2022-11-02T22:39:17.118Z,59.37
2022-11-02T22:44:22.811Z,60.15
2022-11-02T22:49:25.653Z,60.50
2022-11-02T22:54:28.648Z,60.11
2022-11-02T22:59:31.575Z,61.18
2022-11-02T23:04:34.471Z,61.51
2022-11-02T23:09:37.452Z,68.90
2022-11-02T23:14:40.353Z,61.02
2022-11-02T23:19:44.379Z,51.47
2022-11-02T23:25:08.679Z,51.47
2022-11-02T23:30:30.763Z,52.99
2022-11-02T23:35:52.654Z,54.27
2022-11-02T23:40:55.816Z,55.59
2022-11-02T23:45:58.772Z,57.08
2022-11-02T23:51:20.393Z,57.99
2022-11-02T23:56:41.999Z,58.62
